sensor_id;sensor_type;location;lat;lon;timestamp;pressure;altitude;pressure_sealevel;temperature;humidity
10261;BME280;5175;42.606;23.388;2023-01-16T00:00:58;93628.41;;;0.14;100.00
10261;BME280;5175;42.606;23.388;2023-01-16T00:03:25;93627.25;;;0.28;100.00
10261;BME280;5175;42.606;23.388;2023-01-16T00:05:52;93629.22;;;0.32;100.00
10261;BME280;5175;42.606;23.388;2023-01-16T00:08:18;93632.41;;;0.16;100.00
10261;BME280;5175;42.606;23.388;2023-01-16T00:10:46;93627.75;;;0.18;100.00
10261;BME280;5175;42.606;23.388;2023-01-16T00:13:13;93621.78;;;0.11;100.00
10261;BME280;5175;42.606;23.388;2023-01-16T00:15:44;93623.59;;;0.11;100.00
10261;BME280;5175;42.606;23.388;2023-01-16T00:18:11;93625.63;;;0.09;100.00
10261;BME280;5175;42.606;23.388;2023-01-16T00:20:38;93621.78;;;0.11;100.00
10261;BME280;5175;42.606;23.388;2023-01-16T00:23:04;93614.28;;;0.15;100.00
10261;BME280;5175;42.606;23.388;2023-01-16T00:25:31;93624.69;;;0.03;100.00
10261;BME280;5175;42.606;23.388;2023-01-16T00:27:59;93622.81;;;0.10;100.00
10261;BME280;5175;42.606;23.388;2023-01-16T00:30:26;93624.78;;;-0.04;100.00
10261;BME280;5175;42.606;23.388;2023-01-16T00:32:53;93610.63;;;-0.03;100.00
10261;BME280;5175;42.606;23.388;2023-01-16T00:35:19;93615.88;;;-0.03;100.00
10261;BME280;5175;42.606;23.388;2023-01-16T00:37:46;93598.41;;;0.10;100.00
10261;BME280;5175;42.606;23.388;2023-01-16T00:40:13;93591.34;;;0.10;100.00
10261;BME280;5175;42.606;23.388;2023-01-16T00:42:40;93592.72;;;0.13;100.00
10261;BME280;5175;42.606;23.388;2023-01-16T00:45:09;93593.06;;;-0.02;100.00
10261;BME280;5175;42.606;23.388;2023-01-16T00:47:36;93595.06;;;0.03;100.00
10261;BME280;5175;42.606;23.388;2023-01-16T00:50:04;93576.09;;;-0.18;100.00
10261;BME280;5175;42.606;23.388;2023-01-16T00:52:31;93581.50;;;-0.13;100.00
10261;BME280;5175;42.606;23.388;2023-01-16T00:54:57;93578.09;;;-0.13;100.00
10261;BME280;5175;42.606;23.388;2023-01-16T00:57:24;93574.38;;;-0.06;100.00
10261;BME280;5175;42.606;23.388;2023-01-16T00:59:51;93568.75;;;-0.09;100.00
10261;BME280;5175;42.606;23.388;2023-01-16T01:02:19;93573.03;;;-0.15;100.00
10261;BME280;5175;42.606;23.388;2023-01-16T01:04:46;93581.06;;;-0.10;100.00
10261;BME280;5175;42.606;23.388;2023-01-16T01:07:13;93583.69;;;-0.10;100.00
10261;BME280;5175;42.606;23.388;2023-01-16T01:09:39;93581.84;;;-0.27;100.00
10261;BME280;5175;42.606;23.388;2023-01-16T01:12:06;93583.19;;;-0.18;100.00
10261;BME280;5175;42.606;23.388;2023-01-16T01:14:33;93585.81;;;-0.18;100.00
10261;BME280;5175;42.606;23.388;2023-01-16T01:17:00;93585.72;;;-0.12;100.00
10261;BME280;5175;42.606;23.388;2023-01-16T01:19:28;93583.75;;;-0.16;100.00
10261;BME280;5175;42.606;23.388;2023-01-16T01:21:54;93584.44;;;-0.21;100.00
10261;BME280;5175;42.606;23.388;2023-01-16T01:24:21;93578.84;;;-0.31;100.00
10261;BME280;5175;42.606;23.388;2023-01-16T01:26:48;93582.44;;;-0.25;100.00
10261;BME280;5175;42.606;23.388;2023-01-16T01:29:14;93581.56;;;-0.19;100.00
10261;BME280;5175;42.606;23.388;2023-01-16T01:31:41;93589.16;;;-0.11;100.00
10261;BME280;5175;42.606;23.388;2023-01-16T01:34:08;93588.78;;;-0.15;100.00
10261;BME280;5175;42.606;23.388;2023-01-16T01:36:36;93580.63;;;-0.07;100.00
10261;BME280;5175;42.606;23.388;2023-01-16T01:39:03;93571.94;;;-0.07;100.00
10261;BME280;5175;42.606;23.388;2023-01-16T01:41:30;93562.66;;;-0.03;100.00
10261;BME280;5175;42.606;23.388;2023-01-16T01:43:56;93561.03;;;-0.04;100.00
10261;BME280;5175;42.606;23.388;2023-01-16T01:46:26;93559.06;;;-0.09;100.00
10261;BME280;5175;42.606;23.388;2023-01-16T01:48:56;93545.53;;;-0.06;100.00
10261;BME280;5175;42.606;23.388;2023-01-16T01:51:27;93546.97;;;0.09;100.00
10261;BME280;5175;42.606;23.388;2023-01-16T01:53:59;93541.84;;;0.14;100.00
10261;BME280;5175;42.606;23.388;2023-01-16T01:56:31;93543.19;;;0.05;100.00
10261;BME280;5175;42.606;23.388;2023-01-16T01:59:02;93525.19;;;0.08;100.00
10261;BME280;5175;42.606;23.388;2023-01-16T02:01:32;93535.75;;;0.20;100.00
10261;BME280;5175;42.606;23.388;2023-01-16T02:04:02;93529.31;;;0.16;100.00
10261;BME280;5175;42.606;23.388;2023-01-16T02:06:35;93523.44;;;0.20;100.00
10261;BME280;5175;42.606;23.388;2023-01-16T02:09:07;93525.22;;;0.38;100.00
10261;BME280;5175;42.606;23.388;2023-01-16T02:11:37;93513.94;;;0.19;100.00
10261;BME280;5175;42.606;23.388;2023-01-16T02:14:07;93522.94;;;0.12;100.00
10261;BME280;5175;42.606;23.388;2023-01-16T02:16:35;93517.38;;;0.20;100.00
10261;BME280;5175;42.606;23.388;2023-01-16T02:19:28;93522.09;;;0.29;100.00
10261;BME280;5175;42.606;23.388;2023-01-16T02:25:25;93510.34;;;0.02;100.00
10261;BME280;5175;42.606;23.388;2023-01-16T02:31:08;93494.81;;;0.00;100.00
10261;BME280;5175;42.606;23.388;2023-01-16T02:33:47;93506.63;;;0.10;100.00
10261;BME280;5175;42.606;23.388;2023-01-16T02:36:24;93504.34;;;0.13;100.00
10261;BME280;5175;42.606;23.388;2023-01-16T02:38:55;93508.97;;;-0.01;100.00
10261;BME280;5175;42.606;23.388;2023-01-16T02:41:31;93491.16;;;0.20;100.00
10261;BME280;5175;42.606;23.388;2023-01-16T02:44:11;93487.00;;;0.12;100.00
10261;BME280;5175;42.606;23.388;2023-01-16T02:46:46;93499.53;;;0.28;100.00
10261;BME280;5175;42.606;23.388;2023-01-16T02:49:19;93485.00;;;0.26;100.00
10261;BME280;5175;42.606;23.388;2023-01-16T02:51:52;93496.81;;;0.46;100.00
10261;BME280;5175;42.606;23.388;2023-01-16T02:54:26;93496.47;;;0.43;100.00
10261;BME280;5175;42.606;23.388;2023-01-16T02:56:57;93499.22;;;0.48;100.00
10261;BME280;5175;42.606;23.388;2023-01-16T02:59:27;93499.56;;;0.51;100.00
10261;BME280;5175;42.606;23.388;2023-01-16T03:01:57;93486.38;;;0.58;100.00
10261;BME280;5175;42.606;23.388;2023-01-16T03:04:41;93485.88;;;0.49;100.00
10261;BME280;5175;42.606;23.388;2023-01-16T03:07:23;93476.94;;;0.39;100.00
10261;BME280;5175;42.606;23.388;2023-01-16T03:10:04;93480.16;;;0.41;100.00
10261;BME280;5175;42.606;23.388;2023-01-16T03:12:42;93470.91;;;0.38;100.00
10261;BME280;5175;42.606;23.388;2023-01-16T03:15:21;93474.31;;;0.39;100.00
10261;BME280;5175;42.606;23.388;2023-01-16T03:18:03;93461.75;;;0.29;100.00
10261;BME280;5175;42.606;23.388;2023-01-16T03:20:40;93461.25;;;0.21;100.00
10261;BME280;5175;42.606;23.388;2023-01-16T03:23:21;93467.22;;;0.28;100.00
10261;BME280;5175;42.606;23.388;2023-01-16T03:25:55;93464.94;;;0.31;100.00
10261;BME280;5175;42.606;23.388;2023-01-16T03:28:31;93460.13;;;0.17;100.00
10261;BME280;5175;42.606;23.388;2023-01-16T03:31:06;93449.53;;;-0.07;100.00
10261;BME280;5175;42.606;23.388;2023-01-16T03:33:39;93449.25;;;-0.17;100.00
10261;BME280;5175;42.606;23.388;2023-01-16T03:36:13;93447.50;;;-0.05;100.00
10261;BME280;5175;42.606;23.388;2023-01-16T03:38:43;93446.03;;;-0.01;100.00
10261;BME280;5175;42.606;23.388;2023-01-16T03:41:16;93441.97;;;-0.15;100.00
10261;BME280;5175;42.606;23.388;2023-01-16T03:43:50;93435.50;;;-0.12;100.00
10261;BME280;5175;42.606;23.388;2023-01-16T03:46:22;93429.31;;;-0.18;100.00
10261;BME280;5175;42.606;23.388;2023-01-16T03:48:54;93423.50;;;-0.20;100.00
10261;BME280;5175;42.606;23.388;2023-01-16T03:51:23;93421.97;;;-0.27;100.00
10261;BME280;5175;42.606;23.388;2023-01-16T03:53:58;93424.41;;;-0.26;100.00
10261;BME280;5175;42.606;23.388;2023-01-16T03:56:32;93411.72;;;-0.29;100.00
10261;BME280;5175;42.606;23.388;2023-01-16T03:59:01;93425.97;;;-0.25;100.00
10261;BME280;5175;42.606;23.388;2023-01-16T04:01:36;93417.44;;;-0.20;100.00
10261;BME280;5175;42.606;23.388;2023-01-16T04:04:07;93402.97;;;-0.23;100.00
10261;BME280;5175;42.606;23.388;2023-01-16T04:06:42;93393.19;;;-0.45;100.00
10261;BME280;5175;42.606;23.388;2023-01-16T04:09:16;93404.06;;;-0.30;100.00
10261;BME280;5175;42.606;23.388;2023-01-16T04:11:45;93394.75;;;-0.26;100.00
10261;BME280;5175;42.606;23.388;2023-01-16T04:14:13;93401.97;;;-0.40;100.00
10261;BME280;5175;42.606;23.388;2023-01-16T04:16:41;93407.34;;;-0.35;100.00
10261;BME280;5175;42.606;23.388;2023-01-16T04:19:12;93395.66;;;-0.50;100.00
10261;BME280;5175;42.606;23.388;2023-01-16T04:21:43;93398.56;;;-0.40;100.00
10261;BME280;5175;42.606;23.388;2023-01-16T04:24:10;93401.75;;;-0.38;100.00
10261;BME280;5175;42.606;23.388;2023-01-16T04:26:37;93403.25;;;-0.31;100.00
10261;BME280;5175;42.606;23.388;2023-01-16T04:29:04;93404.06;;;-0.30;100.00
10261;BME280;5175;42.606;23.388;2023-01-16T04:31:31;93409.69;;;-0.27;100.00
10261;BME280;5175;42.606;23.388;2023-01-16T04:33:57;93402.25;;;-0.30;100.00
10261;BME280;5175;42.606;23.388;2023-01-16T04:36:25;93396.06;;;-0.35;100.00
10261;BME280;5175;42.606;23.388;2023-01-16T04:38:52;93405.81;;;-0.54;100.00
10261;BME280;5175;42.606;23.388;2023-01-16T04:41:19;93397.00;;;-0.59;100.00
10261;BME280;5175;42.606;23.388;2023-01-16T04:43:59;93391.88;;;-0.36;100.00
10261;BME280;5175;42.606;23.388;2023-01-16T04:46:26;93392.94;;;-0.26;100.00
10261;BME280;5175;42.606;23.388;2023-01-16T04:48:53;93382.75;;;-0.34;100.00
10261;BME280;5175;42.606;23.388;2023-01-16T04:51:20;93392.34;;;-0.28;100.00
10261;BME280;5175;42.606;23.388;2023-01-16T04:53:48;93374.31;;;-0.36;100.00
10261;BME280;5175;42.606;23.388;2023-01-16T04:56:14;93384.44;;;-0.39;100.00
10261;BME280;5175;42.606;23.388;2023-01-16T04:58:41;93391.50;;;-0.40;100.00
10261;BME280;5175;42.606;23.388;2023-01-16T05:01:08;93389.13;;;-0.41;100.00
10261;BME280;5175;42.606;23.388;2023-01-16T05:03:34;93386.25;;;-0.40;100.00
10261;BME280;5175;42.606;23.388;2023-01-16T05:06:01;93371.41;;;-0.46;100.00
10261;BME280;5175;42.606;23.388;2023-01-16T05:08:28;93382.50;;;-0.44;100.00
10261;BME280;5175;42.606;23.388;2023-01-16T05:10:57;93388.22;;;-0.35;100.00
10261;BME280;5175;42.606;23.388;2023-01-16T05:13:26;93381.03;;;-0.40;100.00
10261;BME280;5175;42.606;23.388;2023-01-16T05:15:53;93380.22;;;-0.40;100.00
10261;BME280;5175;42.606;23.388;2023-01-16T05:18:20;93377.59;;;-0.40;100.00
10261;BME280;5175;42.606;23.388;2023-01-16T05:20:46;93373.41;;;-0.41;100.00
10261;BME280;5175;42.606;23.388;2023-01-16T05:23:13;93371.78;;;-0.42;100.00
10261;BME280;5175;42.606;23.388;2023-01-16T05:25:40;93362.69;;;-0.40;100.00
10261;BME280;5175;42.606;23.388;2023-01-16T05:28:08;93355.25;;;-0.43;100.00
10261;BME280;5175;42.606;23.388;2023-01-16T05:30:35;93356.28;;;-0.44;100.00
10261;BME280;5175;42.606;23.388;2023-01-16T05:33:02;93344.31;;;-0.51;100.00
10261;BME280;5175;42.606;23.388;2023-01-16T05:35:30;93350.13;;;-0.49;100.00
10261;BME280;5175;42.606;23.388;2023-01-16T05:37:56;93346.47;;;-0.48;100.00
10261;BME280;5175;42.606;23.388;2023-01-16T05:40:23;93349.69;;;-0.46;100.00
10261;BME280;5175;42.606;23.388;2023-01-16T05:42:50;93340.38;;;-0.60;100.00
10261;BME280;5175;42.606;23.388;2023-01-16T05:45:18;93349.03;;;-0.60;100.00
10261;BME280;5175;42.606;23.388;2023-01-16T05:47:45;93331.72;;;-0.61;100.00
10261;BME280;5175;42.606;23.388;2023-01-16T05:50:12;93340.69;;;-0.69;100.00
10261;BME280;5175;42.606;23.388;2023-01-16T05:52:39;93343.59;;;-0.77;100.00
10261;BME280;5175;42.606;23.388;2023-01-16T05:55:06;93337.84;;;-0.67;100.00
10261;BME280;5175;42.606;23.388;2023-01-16T05:57:33;93342.56;;;-0.57;100.00
10261;BME280;5175;42.606;23.388;2023-01-16T06:00:00;93342.03;;;-0.48;100.00
10261;BME280;5175;42.606;23.388;2023-01-16T06:02:28;93337.50;;;-0.41;100.00
10261;BME280;5175;42.606;23.388;2023-01-16T06:04:55;93341.53;;;-0.56;100.00
10261;BME280;5175;42.606;23.388;2023-01-16T06:07:22;93346.41;;;-0.60;100.00
10261;BME280;5175;42.606;23.388;2023-01-16T06:09:48;93341.53;;;-0.56;100.00
10261;BME280;5175;42.606;23.388;2023-01-16T06:12:16;93337.75;;;-0.60;100.00
10261;BME280;5175;42.606;23.388;2023-01-16T06:14:44;93342.28;;;-0.68;100.00
10261;BME280;5175;42.606;23.388;2023-01-16T06:17:12;93334.19;;;-0.66;100.00
10261;BME280;5175;42.606;23.388;2023-01-16T06:19:41;93326.56;;;-0.68;100.00
10261;BME280;5175;42.606;23.388;2023-01-16T06:22:07;93323.66;;;-0.59;100.00
10261;BME280;5175;42.606;23.388;2023-01-16T06:24:34;93320.84;;;-0.46;100.00
10261;BME280;5175;42.606;23.388;2023-01-16T06:27:01;93329.75;;;-0.36;100.00
10261;BME280;5175;42.606;23.388;2023-01-16T06:29:28;93334.69;;;-0.28;100.00
10261;BME280;5175;42.606;23.388;2023-01-16T06:31:54;93331.53;;;-0.18;100.00
10261;BME280;5175;42.606;23.388;2023-01-16T06:34:21;93328.38;;;-0.09;100.00
10261;BME280;5175;42.606;23.388;2023-01-16T06:36:49;93335.78;;;-0.06;100.00
10261;BME280;5175;42.606;23.388;2023-01-16T06:39:16;93335.19;;;-0.08;100.00
10261;BME280;5175;42.606;23.388;2023-01-16T06:41:43;93350.84;;;0.11;100.00
10261;BME280;5175;42.606;23.388;2023-01-16T06:44:10;93369.00;;;0.12;100.00
10261;BME280;5175;42.606;23.388;2023-01-16T06:46:37;93352.56;;;0.05;100.00
10261;BME280;5175;42.606;23.388;2023-01-16T06:49:04;93356.94;;;0.23;100.00
10261;BME280;5175;42.606;23.388;2023-01-16T06:51:31;93353.41;;;0.29;100.00
10261;BME280;5175;42.606;23.388;2023-01-16T06:53:59;93347.38;;;0.40;100.00
10261;BME280;5175;42.606;23.388;2023-01-16T06:56:28;93325.47;;;0.46;100.00
10261;BME280;5175;42.606;23.388;2023-01-16T06:58:55;93325.94;;;0.66;100.00
10261;BME280;5175;42.606;23.388;2023-01-16T07:01:21;93317.16;;;0.60;100.00
10261;BME280;5175;42.606;23.388;2023-01-16T07:03:48;93334.25;;;0.75;100.00
10261;BME280;5175;42.606;23.388;2023-01-16T07:06:15;93347.81;;;1.06;100.00
10261;BME280;5175;42.606;23.388;2023-01-16T07:08:41;93338.84;;;1.31;100.00
10261;BME280;5175;42.606;23.388;2023-01-16T07:11:11;93339.25;;;1.39;100.00
10261;BME280;5175;42.606;23.388;2023-01-16T07:13:38;93324.03;;;1.53;100.00
10261;BME280;5175;42.606;23.388;2023-01-16T07:16:04;93331.03;;;1.75;100.00
10261;BME280;5175;42.606;23.388;2023-01-16T07:18:49;93331.56;;;1.77;100.00
10261;BME280;5175;42.606;23.388;2023-01-16T07:21:33;93319.19;;;1.89;100.00
10261;BME280;5175;42.606;23.388;2023-01-16T07:24:19;93321.53;;;2.03;100.00
10261;BME280;5175;42.606;23.388;2023-01-16T07:26:51;93324.88;;;2.15;100.00
10261;BME280;5175;42.606;23.388;2023-01-16T07:29:19;93320.19;;;2.33;100.00
10261;BME280;5175;42.606;23.388;2023-01-16T07:31:46;93312.59;;;2.37;100.00
10261;BME280;5175;42.606;23.388;2023-01-16T07:34:13;93303.09;;;2.52;100.00
10261;BME280;5175;42.606;23.388;2023-01-16T07:36:40;93315.78;;;2.39;100.00
10261;BME280;5175;42.606;23.388;2023-01-16T07:39:07;93316.75;;;2.33;100.00
10261;BME280;5175;42.606;23.388;2023-01-16T07:41:33;93315.63;;;2.45;100.00
10261;BME280;5175;42.606;23.388;2023-01-16T07:44:01;93313.00;;;2.45;100.00
10261;BME280;5175;42.606;23.388;2023-01-16T07:46:28;93295.69;;;2.49;100.00
10261;BME280;5175;42.606;23.388;2023-01-16T07:48:55;93286.22;;;2.70;100.00
10261;BME280;5175;42.606;23.388;2023-01-16T07:51:22;93305.06;;;2.62;100.00
10261;BME280;5175;42.606;23.388;2023-01-16T07:53:49;93314.56;;;2.13;100.00
10261;BME280;5175;42.606;23.388;2023-01-16T07:56:16;93302.47;;;2.45;100.00
10261;BME280;5175;42.606;23.388;2023-01-16T07:58:42;93300.47;;;2.52;100.00
10261;BME280;5175;42.606;23.388;2023-01-16T08:01:11;93277.66;;;2.58;100.00
10261;BME280;5175;42.606;23.388;2023-01-16T08:03:38;93206.41;;;2.10;100.00
10261;BME280;5175;42.606;23.388;2023-01-16T08:06:05;93284.81;;;2.63;100.00
10261;BME280;5175;42.606;23.388;2023-01-16T08:08:32;93276.63;;;2.59;100.00
10261;BME280;5175;42.606;23.388;2023-01-16T08:11:00;93267.44;;;2.62;100.00
10261;BME280;5175;42.606;23.388;2023-01-16T08:13:49;93278.91;;;2.72;100.00
10261;BME280;5175;42.606;23.388;2023-01-16T08:16:17;93264.09;;;2.88;100.00
10261;BME280;5175;42.606;23.388;2023-01-16T08:18:44;93270.97;;;2.89;100.00
10261;BME280;5175;42.606;23.388;2023-01-16T08:21:14;93252.78;;;2.87;100.00
10261;BME280;5175;42.606;23.388;2023-01-16T08:23:41;93274.69;;;2.93;100.00
10261;BME280;5175;42.606;23.388;2023-01-16T08:26:08;93268.00;;;2.64;100.00
10261;BME280;5175;42.606;23.388;2023-01-16T08:28:35;93274.56;;;2.83;100.00
10261;BME280;5175;42.606;23.388;2023-01-16T08:31:05;93282.84;;;2.91;100.00
10261;BME280;5175;42.606;23.388;2023-01-16T08:33:35;93295.00;;;2.92;100.00
10261;BME280;5175;42.606;23.388;2023-01-16T08:36:03;93299.47;;;2.92;100.00
10261;BME280;5175;42.606;23.388;2023-01-16T08:38:30;93284.84;;;2.46;100.00
10261;BME280;5175;42.606;23.388;2023-01-16T08:40:56;93279.00;;;2.61;100.00
10261;BME280;5175;42.606;23.388;2023-01-16T08:43:23;93270.69;;;2.69;100.00
10261;BME280;5175;42.606;23.388;2023-01-16T08:46:16;93261.72;;;2.70;100.00
10261;BME280;5175;42.606;23.388;2023-01-16T08:48:59;93255.59;;;3.02;100.00
10261;BME280;5175;42.606;23.388;2023-01-16T08:51:43;93258.56;;;3.11;100.00
10261;BME280;5175;42.606;23.388;2023-01-16T08:54:11;93265.16;;;3.30;100.00
10261;BME280;5175;42.606;23.388;2023-01-16T08:56:37;93247.97;;;3.28;100.00
10261;BME280;5175;42.606;23.388;2023-01-16T08:59:08;93239.09;;;3.12;100.00
10261;BME280;5175;42.606;23.388;2023-01-16T09:01:35;93248.03;;;3.33;100.00
10261;BME280;5175;42.606;23.388;2023-01-16T09:04:03;93249.84;;;3.54;100.00
10261;BME280;5175;42.606;23.388;2023-01-16T09:06:29;93249.47;;;3.67;100.00
10261;BME280;5175;42.606;23.388;2023-01-16T09:08:56;93238.91;;;3.67;100.00
10261;BME280;5175;42.606;23.388;2023-01-16T09:11:23;93243.06;;;3.90;100.00
10261;BME280;5175;42.606;23.388;2023-01-16T09:14:07;93229.09;;;3.89;100.00
10261;BME280;5175;42.606;23.388;2023-01-16T09:16:34;93231.38;;;3.80;100.00
10261;BME280;5175;42.606;23.388;2023-01-16T09:19:00;93228.84;;;3.96;100.00
10261;BME280;5175;42.606;23.388;2023-01-16T09:21:28;93236.53;;;3.97;100.00
10261;BME280;5175;42.606;23.388;2023-01-16T09:23:55;93229.69;;;4.01;100.00
10261;BME280;5175;42.606;23.388;2023-01-16T09:26:22;93221.00;;;4.01;100.00
10261;BME280;5175;42.606;23.388;2023-01-16T09:28:49;93214.22;;;4.10;100.00
10261;BME280;5175;42.606;23.388;2023-01-16T09:31:16;93212.38;;;4.10;100.00
10261;BME280;5175;42.606;23.388;2023-01-16T09:33:44;93217.84;;;4.04;100.00
10261;BME280;5175;42.606;23.388;2023-01-16T09:36:12;93209.88;;;4.30;100.00
10261;BME280;5175;42.606;23.388;2023-01-16T09:38:40;93207.56;;;4.39;100.00
10261;BME280;5175;42.606;23.388;2023-01-16T09:41:13;93207.31;;;4.40;100.00
10261;BME280;5175;42.606;23.388;2023-01-16T09:44:02;93201.69;;;4.32;100.00
10261;BME280;5175;42.606;23.388;2023-01-16T09:46:30;93195.75;;;4.10;100.00
10261;BME280;5175;42.606;23.388;2023-01-16T09:49:04;93184.72;;;4.18;100.00
10261;BME280;5175;42.606;23.388;2023-01-16T09:51:36;93162.38;;;3.99;100.00
10261;BME280;5175;42.606;23.388;2023-01-16T09:54:11;93196.66;;;4.25;100.00
10261;BME280;5175;42.606;23.388;2023-01-16T09:56:59;93185.34;;;3.98;100.00
10261;BME280;5175;42.606;23.388;2023-01-16T09:59:46;93173.34;;;3.80;100.00
10261;BME280;5175;42.606;23.388;2023-01-16T10:02:20;93167.59;;;3.89;100.00
10261;BME280;5175;42.606;23.388;2023-01-16T10:04:48;93170.53;;;3.92;100.00
10261;BME280;5175;42.606;23.388;2023-01-16T10:07:39;93176.31;;;3.89;100.00
10261;BME280;5175;42.606;23.388;2023-01-16T10:10:32;93166.47;;;3.79;100.00
10261;BME280;5175;42.606;23.388;2023-01-16T10:13:06;93181.66;;;3.99;100.00
10261;BME280;5175;42.606;23.388;2023-01-16T10:15:38;93156.84;;;3.95;100.00
10261;BME280;5175;42.606;23.388;2023-01-16T10:18:21;93166.47;;;4.16;100.00
10261;BME280;5175;42.606;23.388;2023-01-16T10:21:06;93155.66;;;4.13;100.00
10261;BME280;5175;42.606;23.388;2023-01-16T10:23:47;93137.13;;;4.08;100.00
10261;BME280;5175;42.606;23.388;2023-01-16T10:26:22;93124.19;;;4.06;100.00
10261;BME280;5175;42.606;23.388;2023-01-16T10:29:01;93129.81;;;4.20;100.00
10261;BME280;5175;42.606;23.388;2023-01-16T10:31:33;93121.09;;;4.19;100.00
10261;BME280;5175;42.606;23.388;2023-01-16T10:34:07;93114.25;;;4.18;100.00
10261;BME280;5175;42.606;23.388;2023-01-16T10:36:37;93110.06;;;4.32;100.00
10261;BME280;5175;42.606;23.388;2023-01-16T10:39:10;93095.53;;;4.25;100.00
10261;BME280;5175;42.606;23.388;2023-01-16T10:41:44;93095.13;;;4.53;100.00
10261;BME280;5175;42.606;23.388;2023-01-16T10:44:32;93105.72;;;4.58;100.00
10261;BME280;5175;42.606;23.388;2023-01-16T10:47:19;93093.09;;;4.75;100.00
10261;BME280;5175;42.606;23.388;2023-01-16T10:50:05;93087.25;;;4.68;100.00
10261;BME280;5175;42.606;23.388;2023-01-16T10:52:33;93053.19;;;4.72;100.00
10261;BME280;5175;42.606;23.388;2023-01-16T10:55:01;93075.19;;;4.92;100.00
10261;BME280;5175;42.606;23.388;2023-01-16T10:57:29;93079.16;;;5.00;100.00
10261;BME280;5175;42.606;23.388;2023-01-16T11:00:00;93069.13;;;5.12;100.00
10261;BME280;5175;42.606;23.388;2023-01-16T11:02:30;93059.09;;;5.34;100.00
10261;BME280;5175;42.606;23.388;2023-01-16T11:04:59;93051.44;;;5.48;100.00
10261;BME280;5175;42.606;23.388;2023-01-16T11:07:27;93038.22;;;5.53;100.00
10261;BME280;5175;42.606;23.388;2023-01-16T11:09:55;93035.03;;;5.76;100.00
10261;BME280;5175;42.606;23.388;2023-01-16T11:12:23;93020.19;;;5.70;100.00
10261;BME280;5175;42.606;23.388;2023-01-16T11:15:16;93040.06;;;5.83;100.00
10261;BME280;5175;42.606;23.388;2023-01-16T11:18:01;93038.75;;;5.75;99.13
10261;BME280;5175;42.606;23.388;2023-01-16T11:20:45;92986.38;;;5.22;99.25
10261;BME280;5175;42.606;23.388;2023-01-16T11:23:17;93017.31;;;5.51;99.54
10261;BME280;5175;42.606;23.388;2023-01-16T11:25:45;93029.22;;;5.59;99.40
10261;BME280;5175;42.606;23.388;2023-01-16T11:28:17;93008.84;;;5.75;98.33
10261;BME280;5175;42.606;23.388;2023-01-16T11:30:47;93024.72;;;5.69;98.36
10261;BME280;5175;42.606;23.388;2023-01-16T11:33:17;93024.94;;;5.83;98.26
10261;BME280;5175;42.606;23.388;2023-01-16T11:35:51;93012.28;;;5.90;98.79
10261;BME280;5175;42.606;23.388;2023-01-16T11:38:21;92985.53;;;5.87;99.38
10261;BME280;5175;42.606;23.388;2023-01-16T11:40:49;93011.75;;;5.63;100.00
10261;BME280;5175;42.606;23.388;2023-01-16T11:43:21;93022.28;;;5.83;100.00
10261;BME280;5175;42.606;23.388;2023-01-16T11:46:21;93019.66;;;6.03;100.00
10261;BME280;5175;42.606;23.388;2023-01-16T11:48:53;92988.59;;;6.24;99.23
10261;BME280;5175;42.606;23.388;2023-01-16T11:51:24;92984.38;;;6.23;99.64
10261;BME280;5175;42.606;23.388;2023-01-16T11:53:54;92972.69;;;6.29;100.00
10261;BME280;5175;42.606;23.388;2023-01-16T11:59:30;92972.84;;;6.53;100.00
10261;BME280;5175;42.606;23.388;2023-01-16T12:02:09;92969.31;;;6.67;100.00
10261;BME280;5175;42.606;23.388;2023-01-16T12:04:53;92981.72;;;6.77;100.00
10261;BME280;5175;42.606;23.388;2023-01-16T12:08:02;92958.59;;;6.87;100.00
10261;BME280;5175;42.606;23.388;2023-01-16T12:10:39;92973.59;;;7.02;100.00
10261;BME280;5175;42.606;23.388;2023-01-16T12:13:10;92975.31;;;6.88;99.90
10261;BME280;5175;42.606;23.388;2023-01-16T12:16:06;92941.44;;;6.75;99.79
10261;BME280;5175;42.606;23.388;2023-01-16T12:18:43;92971.13;;;6.77;99.52
10261;BME280;5175;42.606;23.388;2023-01-16T12:21:24;92938.16;;;6.93;99.24
10261;BME280;5175;42.606;23.388;2023-01-16T12:24:07;92951.47;;;6.83;98.66
10261;BME280;5175;42.606;23.388;2023-01-16T12:26:44;92942.69;;;6.87;98.76
10261;BME280;5175;42.606;23.388;2023-01-16T12:29:23;92938.22;;;6.83;98.94
10261;BME280;5175;42.606;23.388;2023-01-16T12:32:05;92938.16;;;6.93;97.47
10261;BME280;5175;42.606;23.388;2023-01-16T12:34:52;92896.81;;;6.87;97.70
10261;BME280;5175;42.606;23.388;2023-01-16T12:37:35;92928.41;;;6.78;97.25
10261;BME280;5175;42.606;23.388;2023-01-16T12:40:21;92930.38;;;6.63;97.88
10261;BME280;5175;42.606;23.388;2023-01-16T12:42:59;92937.53;;;6.67;97.17
10261;BME280;5175;42.606;23.388;2023-01-16T12:45:48;92923.56;;;6.52;98.25
10261;BME280;5175;42.606;23.388;2023-01-16T12:48:35;92889.66;;;6.49;98.52
10261;BME280;5175;42.606;23.388;2023-01-16T12:51:17;92897.50;;;6.25;98.86
10261;BME280;5175;42.606;23.388;2023-01-16T12:57:02;92897.03;;;6.13;99.35
10261;BME280;5175;42.606;23.388;2023-01-16T12:59:35;92908.13;;;6.15;99.09
10261;BME280;5175;42.606;23.388;2023-01-16T13:02:15;92891.13;;;6.26;98.50
10261;BME280;5175;42.606;23.388;2023-01-16T13:04:46;92831.59;;;5.59;98.94
10261;BME280;5175;42.606;23.388;2023-01-16T13:07:16;92887.25;;;6.08;98.86
10261;BME280;5175;42.606;23.388;2023-01-16T13:09:46;92863.84;;;6.25;98.94
10261;BME280;5175;42.606;23.388;2023-01-16T13:12:18;92889.16;;;5.98;99.14
10261;BME280;5175;42.606;23.388;2023-01-16T13:15:06;92882.28;;;5.92;99.83
10261;BME280;5175;42.606;23.388;2023-01-16T13:17:41;92876.75;;;5.88;99.81
10261;BME280;5175;42.606;23.388;2023-01-16T13:20:12;92874.06;;;5.98;99.63
10261;BME280;5175;42.606;23.388;2023-01-16T13:22:46;92850.25;;;5.83;98.81
10261;BME280;5175;42.606;23.388;2023-01-16T13:25:19;92846.84;;;5.88;99.69
10261;BME280;5175;42.606;23.388;2023-01-16T13:27:52;92878.97;;;5.56;99.60
10261;BME280;5175;42.606;23.388;2023-01-16T13:30:21;92845.94;;;5.43;100.00
10261;BME280;5175;42.606;23.388;2023-01-16T13:32:51;92819.44;;;5.53;100.00